sensor_id;sensor_type;location;lat;lon;timestamp;P1;durP1;ratioP1;P2;durP2;ratioP2
43114;SDS011;28727;50.068;14.452;2022-12-22T00:00:04;46.50;;;23.88;;
43114;SDS011;28727;50.068;14.452;2022-12-22T00:02:55;47.33;;;24.30;;
43114;SDS011;28727;50.068;14.452;2022-12-22T00:05:45;52.25;;;26.55;;
43114;SDS011;28727;50.068;14.452;2022-12-22T00:08:36;46.22;;;24.67;;
43114;SDS011;28727;50.068;14.452;2022-12-22T00:11:33;52.40;;;26.92;;
43114;SDS011;28727;50.068;14.452;2022-12-22T00:14:24;47.47;;;24.35;;
43114;SDS011;28727;50.068;14.452;2022-12-22T00:17:16;51.88;;;25.10;;
43114;SDS011;28727;50.068;14.452;2022-12-22T00:20:17;54.30;;;26.98;;
43114;SDS011;28727;50.068;14.452;2022-12-22T00:23:09;46.10;;;24.80;;
43114;SDS011;28727;50.068;14.452;2022-12-22T00:26:00;50.35;;;25.95;;
43114;SDS011;28727;50.068;14.452;2022-12-22T00:28:51;48.65;;;25.10;;
43114;SDS011;28727;50.068;14.452;2022-12-22T00:31:41;49.78;;;25.80;;
43114;SDS011;28727;50.068;14.452;2022-12-22T00:34:37;45.75;;;24.00;;
43114;SDS011;28727;50.068;14.452;2022-12-22T00:37:31;52.55;;;25.92;;
43114;SDS011;28727;50.068;14.452;2022-12-22T00:40:26;51.03;;;27.05;;
43114;SDS011;28727;50.068;14.452;2022-12-22T00:43:17;49.83;;;25.17;;
43114;SDS011;28727;50.068;14.452;2022-12-22T00:46:08;50.90;;;25.27;;
43114;SDS011;28727;50.068;14.452;2022-12-22T00:49:00;55.88;;;28.60;;
43114;SDS011;28727;50.068;14.452;2022-12-22T00:51:51;51.13;;;26.63;;
43114;SDS011;28727;50.068;14.452;2022-12-22T00:54:41;48.55;;;25.02;;
43114;SDS011;28727;50.068;14.452;2022-12-22T00:57:32;46.33;;;23.45;;
43114;SDS011;28727;50.068;14.452;2022-12-22T01:00:22;51.63;;;26.17;;
43114;SDS011;28727;50.068;14.452;2022-12-22T01:03:12;46.15;;;24.02;;
43114;SDS011;28727;50.068;14.452;2022-12-22T01:06:07;54.03;;;27.88;;
43114;SDS011;28727;50.068;14.452;2022-12-22T01:08:58;57.55;;;29.60;;
43114;SDS011;28727;50.068;14.452;2022-12-22T01:11:49;55.45;;;27.58;;
43114;SDS011;28727;50.068;14.452;2022-12-22T01:14:42;53.70;;;27.73;;
43114;SDS011;28727;50.068;14.452;2022-12-22T01:17:32;57.67;;;29.33;;
43114;SDS011;28727;50.068;14.452;2022-12-22T01:20:23;58.38;;;30.55;;
43114;SDS011;28727;50.068;14.452;2022-12-22T01:23:13;55.53;;;28.27;;
43114;SDS011;28727;50.068;14.452;2022-12-22T01:26:04;52.03;;;27.13;;
43114;SDS011;28727;50.068;14.452;2022-12-22T01:28:58;48.70;;;26.80;;
43114;SDS011;28727;50.068;14.452;2022-12-22T01:31:48;53.97;;;27.15;;
43114;SDS011;28727;50.068;14.452;2022-12-22T01:34:39;50.85;;;25.08;;
43114;SDS011;28727;50.068;14.452;2022-12-22T01:37:29;51.50;;;26.02;;
43114;SDS011;28727;50.068;14.452;2022-12-22T01:40:20;47.67;;;26.50;;
43114;SDS011;28727;50.068;14.452;2022-12-22T01:43:18;57.55;;;28.40;;
43114;SDS011;28727;50.068;14.452;2022-12-22T01:49:13;54.38;;;28.08;;
43114;SDS011;28727;50.068;14.452;2022-12-22T01:52:08;53.15;;;28.27;;
43114;SDS011;28727;50.068;14.452;2022-12-22T01:55:02;53.25;;;26.98;;
43114;SDS011;28727;50.068;14.452;2022-12-22T02:00:47;53.45;;;27.15;;
43114;SDS011;28727;50.068;14.452;2022-12-22T02:03:37;53.58;;;27.77;;
43114;SDS011;28727;50.068;14.452;2022-12-22T02:06:32;52.78;;;27.02;;
43114;SDS011;28727;50.068;14.452;2022-12-22T02:12:44;53.95;;;27.45;;
43114;SDS011;28727;50.068;14.452;2022-12-22T02:15:50;53.30;;;27.75;;
43114;SDS011;28727;50.068;14.452;2022-12-22T02:18:53;49.95;;;25.95;;
43114;SDS011;28727;50.068;14.452;2022-12-22T02:25:22;53.22;;;25.13;;
43114;SDS011;28727;50.068;14.452;2022-12-22T02:28:19;51.03;;;27.33;;
43114;SDS011;28727;50.068;14.452;2022-12-22T02:31:10;51.75;;;27.17;;
43114;SDS011;28727;50.068;14.452;2022-12-22T02:34:02;51.83;;;27.05;;
43114;SDS011;28727;50.068;14.452;2022-12-22T02:36:54;51.30;;;26.27;;
43114;SDS011;28727;50.068;14.452;2022-12-22T02:46:28;50.00;;;26.67;;
43114;SDS011;28727;50.068;14.452;2022-12-22T02:52:58;50.30;;;27.25;;
43114;SDS011;28727;50.068;14.452;2022-12-22T02:55:56;51.33;;;26.27;;
43114;SDS011;28727;50.068;14.452;2022-12-22T02:58:51;43.72;;;24.65;;
43114;SDS011;28727;50.068;14.452;2022-12-22T03:01:42;46.78;;;25.05;;
43114;SDS011;28727;50.068;14.452;2022-12-22T03:04:35;47.67;;;24.10;;
43114;SDS011;28727;50.068;14.452;2022-12-22T03:07:26;47.83;;;26.17;;
43114;SDS011;28727;50.068;14.452;2022-12-22T03:10:16;44.03;;;23.80;;
43114;SDS011;28727;50.068;14.452;2022-12-22T03:13:06;55.17;;;26.05;;
43114;SDS011;28727;50.068;14.452;2022-12-22T03:15:56;62.97;;;30.58;;
43114;SDS011;28727;50.068;14.452;2022-12-22T03:18:47;55.88;;;27.17;;
43114;SDS011;28727;50.068;14.452;2022-12-22T03:21:37;55.80;;;28.08;;
43114;SDS011;28727;50.068;14.452;2022-12-22T03:24:27;49.88;;;25.85;;
43114;SDS011;28727;50.068;14.452;2022-12-22T03:27:17;58.47;;;27.38;;
43114;SDS011;28727;50.068;14.452;2022-12-22T03:29:49;51.78;;;26.90;;
43114;SDS011;28727;50.068;14.452;2022-12-22T03:32:21;52.97;;;25.23;;
43114;SDS011;28727;50.068;14.452;2022-12-22T03:34:52;52.33;;;25.90;;
43114;SDS011;28727;50.068;14.452;2022-12-22T03:37:24;52.13;;;26.05;;
43114;SDS011;28727;50.068;14.452;2022-12-22T03:39:56;53.60;;;27.17;;
43114;SDS011;28727;50.068;14.452;2022-12-22T03:42:27;46.88;;;25.35;;
43114;SDS011;28727;50.068;14.452;2022-12-22T03:45:18;51.90;;;25.02;;
43114;SDS011;28727;50.068;14.452;2022-12-22T03:48:10;48.85;;;23.98;;
43114;SDS011;28727;50.068;14.452;2022-12-22T03:50:42;47.60;;;23.23;;
43114;SDS011;28727;50.068;14.452;2022-12-22T03:53:14;47.50;;;24.23;;
43114;SDS011;28727;50.068;14.452;2022-12-22T03:55:45;49.58;;;26.15;;
43114;SDS011;28727;50.068;14.452;2022-12-22T03:58:17;46.25;;;23.73;;
43114;SDS011;28727;50.068;14.452;2022-12-22T04:00:49;44.13;;;22.30;;
43114;SDS011;28727;50.068;14.452;2022-12-22T04:03:21;45.95;;;23.02;;
43114;SDS011;28727;50.068;14.452;2022-12-22T04:05:53;40.75;;;22.92;;
43114;SDS011;28727;50.068;14.452;2022-12-22T04:08:24;41.50;;;22.85;;
43114;SDS011;28727;50.068;14.452;2022-12-22T04:10:56;43.53;;;21.80;;
43114;SDS011;28727;50.068;14.452;2022-12-22T04:13:46;39.85;;;20.42;;
43114;SDS011;28727;50.068;14.452;2022-12-22T04:16:18;43.97;;;22.63;;
43114;SDS011;28727;50.068;14.452;2022-12-22T04:18:50;43.97;;;22.25;;
43114;SDS011;28727;50.068;14.452;2022-12-22T04:21:22;41.88;;;21.38;;
43114;SDS011;28727;50.068;14.452;2022-12-22T04:23:54;35.92;;;19.50;;
43114;SDS011;28727;50.068;14.452;2022-12-22T04:26:26;37.80;;;20.20;;
43114;SDS011;28727;50.068;14.452;2022-12-22T04:28:58;37.13;;;19.55;;
43114;SDS011;28727;50.068;14.452;2022-12-22T04:31:30;36.10;;;19.52;;
43114;SDS011;28727;50.068;14.452;2022-12-22T04:34:02;34.58;;;18.85;;
43114;SDS011;28727;50.068;14.452;2022-12-22T04:36:34;31.83;;;16.80;;
43114;SDS011;28727;50.068;14.452;2022-12-22T04:39:05;30.80;;;16.77;;
43114;SDS011;28727;50.068;14.452;2022-12-22T04:41:37;27.23;;;15.30;;
43114;SDS011;28727;50.068;14.452;2022-12-22T04:44:09;31.48;;;16.20;;
43114;SDS011;28727;50.068;14.452;2022-12-22T04:46:41;27.15;;;14.80;;
43114;SDS011;28727;50.068;14.452;2022-12-22T04:49:12;27.30;;;14.95;;
43114;SDS011;28727;50.068;14.452;2022-12-22T04:51:44;23.65;;;14.73;;
43114;SDS011;28727;50.068;14.452;2022-12-22T04:54:16;26.35;;;14.02;;
43114;SDS011;28727;50.068;14.452;2022-12-22T04:56:47;28.52;;;15.18;;
43114;SDS011;28727;50.068;14.452;2022-12-22T04:59:20;28.17;;;15.43;;
43114;SDS011;28727;50.068;14.452;2022-12-22T05:01:55;29.63;;;15.15;;
43114;SDS011;28727;50.068;14.452;2022-12-22T05:04:27;26.27;;;14.52;;
43114;SDS011;28727;50.068;14.452;2022-12-22T05:06:59;26.27;;;14.43;;
43114;SDS011;28727;50.068;14.452;2022-12-22T05:09:31;26.00;;;14.45;;
43114;SDS011;28727;50.068;14.452;2022-12-22T05:12:03;25.42;;;14.85;;
43114;SDS011;28727;50.068;14.452;2022-12-22T05:14:57;21.77;;;12.80;;
43114;SDS011;28727;50.068;14.452;2022-12-22T05:17:29;25.83;;;14.23;;
43114;SDS011;28727;50.068;14.452;2022-12-22T05:20:01;24.38;;;13.45;;
43114;SDS011;28727;50.068;14.452;2022-12-22T05:22:33;23.48;;;13.73;;
43114;SDS011;28727;50.068;14.452;2022-12-22T05:25:05;24.52;;;13.65;;
43114;SDS011;28727;50.068;14.452;2022-12-22T05:27:37;22.25;;;12.48;;
43114;SDS011;28727;50.068;14.452;2022-12-22T05:30:09;24.65;;;13.90;;
43114;SDS011;28727;50.068;14.452;2022-12-22T05:32:44;23.20;;;13.52;;
43114;SDS011;28727;50.068;14.452;2022-12-22T05:35:16;23.67;;;13.32;;
43114;SDS011;28727;50.068;14.452;2022-12-22T05:37:48;21.63;;;12.35;;
43114;SDS011;28727;50.068;14.452;2022-12-22T05:40:20;24.13;;;13.27;;
43114;SDS011;28727;50.068;14.452;2022-12-22T05:42:52;22.33;;;12.70;;
43114;SDS011;28727;50.068;14.452;2022-12-22T05:45:24;20.45;;;11.57;;
43114;SDS011;28727;50.068;14.452;2022-12-22T05:47:56;20.17;;;12.48;;
43114;SDS011;28727;50.068;14.452;2022-12-22T05:50:28;19.45;;;12.18;;
43114;SDS011;28727;50.068;14.452;2022-12-22T05:53:07;21.35;;;12.43;;
43114;SDS011;28727;50.068;14.452;2022-12-22T05:55:39;22.63;;;12.50;;
43114;SDS011;28727;50.068;14.452;2022-12-22T05:58:10;20.05;;;12.00;;
43114;SDS011;28727;50.068;14.452;2022-12-22T06:00:42;20.80;;;12.10;;
43114;SDS011;28727;50.068;14.452;2022-12-22T06:03:14;19.88;;;12.13;;
43114;SDS011;28727;50.068;14.452;2022-12-22T06:05:48;20.08;;;11.82;;
43114;SDS011;28727;50.068;14.452;2022-12-22T06:08:21;24.67;;;13.68;;
43114;SDS011;28727;50.068;14.452;2022-12-22T06:10:53;23.02;;;12.57;;
43114;SDS011;28727;50.068;14.452;2022-12-22T06:13:26;23.30;;;12.30;;
43114;SDS011;28727;50.068;14.452;2022-12-22T06:15:57;22.52;;;12.45;;
43114;SDS011;28727;50.068;14.452;2022-12-22T06:18:29;20.20;;;11.70;;
43114;SDS011;28727;50.068;14.452;2022-12-22T06:21:01;18.45;;;11.00;;
43114;SDS011;28727;50.068;14.452;2022-12-22T06:23:33;19.88;;;11.82;;
43114;SDS011;28727;50.068;14.452;2022-12-22T06:26:04;18.23;;;10.50;;
43114;SDS011;28727;50.068;14.452;2022-12-22T06:28:36;21.73;;;12.85;;
43114;SDS011;28727;50.068;14.452;2022-12-22T06:31:08;18.02;;;11.18;;
43114;SDS011;28727;50.068;14.452;2022-12-22T06:33:39;18.35;;;11.20;;
43114;SDS011;28727;50.068;14.452;2022-12-22T06:36:11;19.10;;;11.68;;
43114;SDS011;28727;50.068;14.452;2022-12-22T06:38:43;18.92;;;10.75;;
43114;SDS011;28727;50.068;14.452;2022-12-22T06:41:15;18.40;;;10.40;;
43114;SDS011;28727;50.068;14.452;2022-12-22T06:44:06;17.70;;;11.05;;
43114;SDS011;28727;50.068;14.452;2022-12-22T06:46:38;18.33;;;10.95;;
43114;SDS011;28727;50.068;14.452;2022-12-22T06:49:10;18.77;;;11.05;;
43114;SDS011;28727;50.068;14.452;2022-12-22T06:51:42;16.45;;;10.52;;
43114;SDS011;28727;50.068;14.452;2022-12-22T06:54:14;16.45;;;10.38;;
43114;SDS011;28727;50.068;14.452;2022-12-22T06:56:52;17.48;;;10.60;;
43114;SDS011;28727;50.068;14.452;2022-12-22T06:59:24;16.65;;;10.40;;
43114;SDS011;28727;50.068;14.452;2022-12-22T07:01:56;16.92;;;9.90;;
43114;SDS011;28727;50.068;14.452;2022-12-22T07:04:27;17.80;;;10.38;;
43114;SDS011;28727;50.068;14.452;2022-12-22T07:07:01;16.30;;;10.13;;
43114;SDS011;28727;50.068;14.452;2022-12-22T07:09:32;17.63;;;9.95;;
43114;SDS011;28727;50.068;14.452;2022-12-22T07:12:04;16.92;;;10.77;;
43114;SDS011;28727;50.068;14.452;2022-12-22T07:14:36;17.85;;;9.82;;
43114;SDS011;28727;50.068;14.452;2022-12-22T07:17:08;16.13;;;9.82;;
43114;SDS011;28727;50.068;14.452;2022-12-22T07:19:40;18.48;;;11.65;;
43114;SDS011;28727;50.068;14.452;2022-12-22T07:22:12;19.65;;;12.38;;
43114;SDS011;28727;50.068;14.452;2022-12-22T07:24:43;16.30;;;11.75;;
43114;SDS011;28727;50.068;14.452;2022-12-22T07:27:15;19.30;;;12.68;;
43114;SDS011;28727;50.068;14.452;2022-12-22T07:29:47;24.55;;;13.68;;
43114;SDS011;28727;50.068;14.452;2022-12-22T07:32:19;23.40;;;13.75;;
43114;SDS011;28727;50.068;14.452;2022-12-22T07:34:50;15.98;;;10.60;;
43114;SDS011;28727;50.068;14.452;2022-12-22T07:37:22;16.10;;;9.82;;
43114;SDS011;28727;50.068;14.452;2022-12-22T07:39:54;16.20;;;9.98;;
43114;SDS011;28727;50.068;14.452;2022-12-22T07:42:25;22.88;;;10.10;;
43114;SDS011;28727;50.068;14.452;2022-12-22T07:45:18;17.10;;;9.82;;
43114;SDS011;28727;50.068;14.452;2022-12-22T07:47:50;16.30;;;9.68;;
43114;SDS011;28727;50.068;14.452;2022-12-22T07:50:22;18.75;;;9.90;;
43114;SDS011;28727;50.068;14.452;2022-12-22T07:52:59;15.50;;;9.68;;
43114;SDS011;28727;50.068;14.452;2022-12-22T07:55:35;14.38;;;8.98;;
43114;SDS011;28727;50.068;14.452;2022-12-22T07:58:07;17.25;;;10.05;;
43114;SDS011;28727;50.068;14.452;2022-12-22T08:00:38;15.45;;;9.98;;
43114;SDS011;28727;50.068;14.452;2022-12-22T08:03:10;15.30;;;9.13;;
43114;SDS011;28727;50.068;14.452;2022-12-22T08:05:42;15.25;;;9.38;;
43114;SDS011;28727;50.068;14.452;2022-12-22T08:08:15;15.57;;;9.93;;
43114;SDS011;28727;50.068;14.452;2022-12-22T08:10:47;15.77;;;9.15;;
43114;SDS011;28727;50.068;14.452;2022-12-22T08:13:19;14.45;;;9.60;;
43114;SDS011;28727;50.068;14.452;2022-12-22T08:15:51;19.25;;;9.90;;
43114;SDS011;28727;50.068;14.452;2022-12-22T08:18:22;15.52;;;9.18;;
43114;SDS011;28727;50.068;14.452;2022-12-22T08:20:57;15.70;;;9.07;;
43114;SDS011;28727;50.068;14.452;2022-12-22T08:23:29;13.65;;;8.68;;
43114;SDS011;28727;50.068;14.452;2022-12-22T08:26:13;15.07;;;9.52;;
43114;SDS011;28727;50.068;14.452;2022-12-22T08:31:23;13.65;;;8.82;;
43114;SDS011;28727;50.068;14.452;2022-12-22T08:33:57;13.85;;;8.27;;
43114;SDS011;28727;50.068;14.452;2022-12-22T08:36:35;13.20;;;9.00;;
43114;SDS011;28727;50.068;14.452;2022-12-22T08:39:12;17.70;;;10.25;;
43114;SDS011;28727;50.068;14.452;2022-12-22T08:41:45;19.38;;;9.90;;
43114;SDS011;28727;50.068;14.452;2022-12-22T08:44:24;15.68;;;8.85;;
43114;SDS011;28727;50.068;14.452;2022-12-22T08:47:01;12.23;;;7.80;;
43114;SDS011;28727;50.068;14.452;2022-12-22T08:49:32;13.88;;;9.60;;
43114;SDS011;28727;50.068;14.452;2022-12-22T08:52:04;12.48;;;8.10;;
43114;SDS011;28727;50.068;14.452;2022-12-22T08:54:36;14.40;;;8.48;;
43114;SDS011;28727;50.068;14.452;2022-12-22T08:57:08;12.43;;;8.15;;
43114;SDS011;28727;50.068;14.452;2022-12-22T08:59:40;12.75;;;7.85;;
43114;SDS011;28727;50.068;14.452;2022-12-22T09:02:12;12.55;;;8.48;;
43114;SDS011;28727;50.068;14.452;2022-12-22T09:04:44;13.55;;;8.20;;
43114;SDS011;28727;50.068;14.452;2022-12-22T09:07:16;13.55;;;8.52;;
43114;SDS011;28727;50.068;14.452;2022-12-22T09:09:48;11.82;;;8.07;;
43114;SDS011;28727;50.068;14.452;2022-12-22T09:12:20;13.18;;;8.50;;
43114;SDS011;28727;50.068;14.452;2022-12-22T09:14:52;11.13;;;7.65;;
43114;SDS011;28727;50.068;14.452;2022-12-22T09:17:24;14.40;;;8.50;;
43114;SDS011;28727;50.068;14.452;2022-12-22T09:19:56;12.43;;;7.70;;
43114;SDS011;28727;50.068;14.452;2022-12-22T09:22:28;11.95;;;7.63;;
43114;SDS011;28727;50.068;14.452;2022-12-22T09:25:00;11.90;;;7.20;;
43114;SDS011;28727;50.068;14.452;2022-12-22T09:27:31;11.48;;;7.40;;
43114;SDS011;28727;50.068;14.452;2022-12-22T09:30:03;12.95;;;8.20;;
43114;SDS011;28727;50.068;14.452;2022-12-22T09:32:35;12.35;;;7.18;;
43114;SDS011;28727;50.068;14.452;2022-12-22T09:35:07;12.80;;;6.53;;
43114;SDS011;28727;50.068;14.452;2022-12-22T09:37:39;10.73;;;6.60;;
43114;SDS011;28727;50.068;14.452;2022-12-22T09:40:11;12.98;;;7.30;;
43114;SDS011;28727;50.068;14.452;2022-12-22T09:42:43;10.15;;;6.97;;
43114;SDS011;28727;50.068;14.452;2022-12-22T09:45:15;9.60;;;6.30;;
43114;SDS011;28727;50.068;14.452;2022-12-22T09:47:51;10.90;;;6.20;;
43114;SDS011;28727;50.068;14.452;2022-12-22T09:50:25;10.00;;;6.70;;
43114;SDS011;28727;50.068;14.452;2022-12-22T09:52:59;10.88;;;6.97;;
43114;SDS011;28727;50.068;14.452;2022-12-22T09:55:40;10.35;;;6.70;;
43114;SDS011;28727;50.068;14.452;2022-12-22T10:06:33;11.00;;;6.78;;
43114;SDS011;28727;50.068;14.452;2022-12-22T10:09:17;11.10;;;6.38;;
43114;SDS011;28727;50.068;14.452;2022-12-22T10:12:13;9.75;;;6.70;;
43114;SDS011;28727;50.068;14.452;2022-12-22T10:14:48;9.88;;;6.53;;
43114;SDS011;28727;50.068;14.452;2022-12-22T10:17:32;10.45;;;6.30;;
43114;SDS011;28727;50.068;14.452;2022-12-22T10:20:06;11.35;;;6.10;;
43114;SDS011;28727;50.068;14.452;2022-12-22T10:22:46;9.90;;;6.07;;
43114;SDS011;28727;50.068;14.452;2022-12-22T10:28:35;8.30;;;5.55;;
43114;SDS011;28727;50.068;14.452;2022-12-22T10:33:52;10.98;;;6.40;;
43114;SDS011;28727;50.068;14.452;2022-12-22T10:36:29;9.70;;;6.45;;
43114;SDS011;28727;50.068;14.452;2022-12-22T10:41:35;11.05;;;6.55;;
43114;SDS011;28727;50.068;14.452;2022-12-22T10:44:17;12.77;;;6.68;;
43114;SDS011;28727;50.068;14.452;2022-12-22T10:46:53;12.50;;;7.05;;
43114;SDS011;28727;50.068;14.452;2022-12-22T10:52:10;11.57;;;7.60;;
43114;SDS011;28727;50.068;14.452;2022-12-22T10:54:46;9.85;;;6.20;;
43114;SDS011;28727;50.068;14.452;2022-12-22T11:00:00;10.20;;;5.72;;
43114;SDS011;28727;50.068;14.452;2022-12-22T11:02:52;9.43;;;5.60;;
43114;SDS011;28727;50.068;14.452;2022-12-22T11:05:29;7.55;;;5.03;;
43114;SDS011;28727;50.068;14.452;2022-12-22T11:08:14;8.95;;;5.72;;
43114;SDS011;28727;50.068;14.452;2022-12-22T11:19:12;9.18;;;5.03;;
43114;SDS011;28727;50.068;14.452;2022-12-22T11:22:44;8.15;;;4.40;;
43114;SDS011;28727;50.068;14.452;2022-12-22T11:30:54;7.80;;;4.43;;
43114;SDS011;28727;50.068;14.452;2022-12-22T11:33:58;11.23;;;4.82;;
43114;SDS011;28727;50.068;14.452;2022-12-22T11:37:09;8.20;;;4.05;;
43114;SDS011;28727;50.068;14.452;2022-12-22T11:39:47;9.05;;;4.28;;
43114;SDS011;28727;50.068;14.452;2022-12-22T11:49:00;20.67;;;11.75;;
43114;SDS011;28727;50.068;14.452;2022-12-22T11:51:51;8.68;;;4.57;;
43114;SDS011;28727;50.068;14.452;2022-12-22T11:54:40;8.70;;;4.30;;
43114;SDS011;28727;50.068;14.452;2022-12-22T12:00:33;8.43;;;4.20;;
43114;SDS011;28727;50.068;14.452;2022-12-22T12:21:27;8.10;;;4.32;;
43114;SDS011;28727;50.068;14.452;2022-12-22T12:30:15;8.02;;;4.53;;
43114;SDS011;28727;50.068;14.452;2022-12-22T12:35:55;8.23;;;4.40;;
43114;SDS011;28727;50.068;14.452;2022-12-22T12:44:22;5.88;;;2.97;;
43114;SDS011;28727;50.068;14.452;2022-12-22T12:47:03;9.07;;;3.38;;
43114;SDS011;28727;50.068;14.452;2022-12-22T12:55:24;5.93;;;2.70;;
43114;SDS011;28727;50.068;14.452;2022-12-22T12:58:03;6.45;;;2.92;;
43114;SDS011;28727;50.068;14.452;2022-12-22T13:00:41;6.93;;;2.38;;
43114;SDS011;28727;50.068;14.452;2022-12-22T13:09:21;7.97;;;2.80;;
43114;SDS011;28727;50.068;14.452;2022-12-22T13:12:31;10.30;;;2.90;;
43114;SDS011;28727;50.068;14.452;2022-12-22T13:15:34;5.95;;;2.80;;
43114;SDS011;28727;50.068;14.452;2022-12-22T13:26:59;4.80;;;2.88;;
43114;SDS011;28727;50.068;14.452;2022-12-22T13:29:38;6.07;;;2.28;;
43114;SDS011;28727;50.068;14.452;2022-12-22T13:32:14;7.15;;;2.65;;
43114;SDS011;28727;50.068;14.452;2022-12-22T13:35:21;6.50;;;3.30;;
43114;SDS011;28727;50.068;14.452;2022-12-22T13:38:31;5.65;;;2.72;;
43114;SDS011;28727;50.068;14.452;2022-12-22T13:41:25;8.95;;;2.78;;
43114;SDS011;28727;50.068;14.452;2022-12-22T13:44:05;5.45;;;2.00;;
43114;SDS011;28727;50.068;14.452;2022-12-22T13:46:42;8.52;;;2.20;;
43114;SDS011;28727;50.068;14.452;2022-12-22T13:49:16;6.20;;;2.08;;
43114;SDS011;28727;50.068;14.452;2022-12-22T13:52:11;7.68;;;3.17;;
43114;SDS011;28727;50.068;14.452;2022-12-22T13:54:45;6.38;;;2.20;;
43114;SDS011;28727;50.068;14.452;2022-12-22T13:57:20;6.85;;;2.25;;
43114;SDS011;28727;50.068;14.452;2022-12-22T13:59:52;6.40;;;1.98;;
43114;SDS011;28727;50.068;14.452;2022-12-22T14:02:30;5.72;;;1.98;;
43114;SDS011;28727;50.068;14.452;2022-12-22T14:05:08;6.55;;;2.67;;
43114;SDS011;28727;50.068;14.452;2022-12-22T14:07:58;5.00;;;1.80;;
43114;SDS011;28727;50.068;14.452;2022-12-22T14:15:57;6.25;;;2.03;;
43114;SDS011;28727;50.068;14.452;2022-12-22T14:18:31;6.68;;;1.80;;
43114;SDS011;28727;50.068;14.452;2022-12-22T14:21:03;4.38;;;1.75;;
43114;SDS011;28727;50.068;14.452;2022-12-22T14:23:40;4.63;;;1.70;;
43114;SDS011;28727;50.068;14.452;2022-12-22T14:26:16;10.05;;;2.45;;
43114;SDS011;28727;50.068;14.452;2022-12-22T14:28:54;6.22;;;1.80;;
43114;SDS011;28727;50.068;14.452;2022-12-22T14:31:26;5.93;;;1.90;;
43114;SDS011;28727;50.068;14.452;2022-12-22T14:33:58;7.93;;;2.03;;
43114;SDS011;28727;50.068;14.452;2022-12-22T14:36:36;3.90;;;1.85;;
43114;SDS011;28727;50.068;14.452;2022-12-22T14:39:19;4.75;;;2.03;;
43114;SDS011;28727;50.068;14.452;2022-12-22T14:41:57;5.40;;;1.83;;
43114;SDS011;28727;50.068;14.452;2022-12-22T14:44:34;5.82;;;1.70;;
43114;SDS011;28727;50.068;14.452;2022-12-22T14:47:15;7.75;;;2.13;;
43114;SDS011;28727;50.068;14.452;2022-12-22T14:49:56;6.43;;;2.47;;
43114;SDS011;28727;50.068;14.452;2022-12-22T14:58:41;4.18;;;1.80;;
43114;SDS011;28727;50.068;14.452;2022-12-22T15:01:22;4.40;;;1.67;;
43114;SDS011;28727;50.068;14.452;2022-12-22T15:04:00;6.65;;;2.47;;
43114;SDS011;28727;50.068;14.452;2022-12-22T15:06:34;4.38;;;1.75;;
43114;SDS011;28727;50.068;14.452;2022-12-22T15:14:25;4.13;;;1.60;;
43114;SDS011;28727;50.068;14.452;2022-12-22T15:17:13;6.03;;;1.70;;
43114;SDS011;28727;50.068;14.452;2022-12-22T15:19:53;4.20;;;1.90;;
43114;SDS011;28727;50.068;14.452;2022-12-22T15:22:28;4.38;;;1.63;;
43114;SDS011;28727;50.068;14.452;2022-12-22T15:24:59;6.05;;;1.80;;
43114;SDS011;28727;50.068;14.452;2022-12-22T15:27:34;4.25;;;1.70;;
43114;SDS011;28727;50.068;14.452;2022-12-22T15:30:06;4.80;;;1.95;;
43114;SDS011;28727;50.068;14.452;2022-12-22T15:32:39;4.30;;;1.60;;
43114;SDS011;28727;50.068;14.452;2022-12-22T15:35:19;5.78;;;1.50;;
43114;SDS011;28727;50.068;14.452;2022-12-22T15:37:56;3.67;;;1.60;;
43114;SDS011;28727;50.068;14.452;2022-12-22T15:40:28;6.43;;;1.50;;
43114;SDS011;28727;50.068;14.452;2022-12-22T15:42:59;3.70;;;1.58;;
43114;SDS011;28727;50.068;14.452;2022-12-22T15:45:31;4.72;;;1.50;;
43114;SDS011;28727;50.068;14.452;2022-12-22T15:48:04;3.75;;;1.63;;
43114;SDS011;28727;50.068;14.452;2022-12-22T15:50:40;4.47;;;1.60;;
43114;SDS011;28727;50.068;14.452;2022-12-22T15:53:15;3.25;;;1.70;;
43114;SDS011;28727;50.068;14.452;2022-12-22T15:55:50;3.35;;;1.60;;
43114;SDS011;28727;50.068;14.452;2022-12-22T16:00:59;4.30;;;1.60;;
43114;SDS011;28727;50.068;14.452;2022-12-22T16:03:31;4.13;;;1.95;;
43114;SDS011;28727;50.068;14.452;2022-12-22T16:06:03;9.02;;;1.88;;
43114;SDS011;28727;50.068;14.452;2022-12-22T16:08:37;5.22;;;1.77;;
43114;SDS011;28727;50.068;14.452;2022-12-22T16:11:11;4.03;;;1.40;;
43114;SDS011;28727;50.068;14.452;2022-12-22T16:13:43;3.20;;;1.40;;
43114;SDS011;28727;50.068;14.452;2022-12-22T16:16:18;3.55;;;1.33;;
43114;SDS011;28727;50.068;14.452;2022-12-22T16:18:50;4.95;;;2.03;;
43114;SDS011;28727;50.068;14.452;2022-12-22T16:21:24;3.17;;;1.50;;
43114;SDS011;28727;50.068;14.452;2022-12-22T16:24:02;2.38;;;1.35;;
43114;SDS011;28727;50.068;14.452;2022-12-22T16:26:34;4.50;;;1.58;;
43114;SDS011;28727;50.068;14.452;2022-12-22T16:29:09;3.90;;;2.00;;
43114;SDS011;28727;50.068;14.452;2022-12-22T16:31:46;3.67;;;1.55;;
43114;SDS011;28727;50.068;14.452;2022-12-22T16:34:20;4.67;;;2.30;;
43114;SDS011;28727;50.068;14.452;2022-12-22T16:36:51;4.20;;;1.60;;
43114;SDS011;28727;50.068;14.452;2022-12-22T16:39:23;3.58;;;1.30;;
43114;SDS011;28727;50.068;14.452;2022-12-22T16:41:55;2.67;;;1.60;;
43114;SDS011;28727;50.068;14.452;2022-12-22T16:44:30;4.25;;;2.17;;
43114;SDS011;28727;50.068;14.452;2022-12-22T16:47:21;3.38;;;1.70;;
43114;SDS011;28727;50.068;14.452;2022-12-22T16:49:56;3.40;;;1.67;;
43114;SDS011;28727;50.068;14.452;2022-12-22T16:52:34;3.83;;;1.60;;
43114;SDS011;28727;50.068;14.452;2022-12-22T16:55:19;6.22;;;1.77;;
43114;SDS011;28727;50.068;14.452;2022-12-22T16:57:52;3.38;;;1.50;;
43114;SDS011;28727;50.068;14.452;2022-12-22T17:00:25;2.83;;;1.30;;
43114;SDS011;28727;50.068;14.452;2022-12-22T17:03:03;2.78;;;1.40;;
43114;SDS011;28727;50.068;14.452;2022-12-22T17:05:52;5.95;;;1.60;;
43114;SDS011;28727;50.068;14.452;2022-12-22T17:08:33;3.67;;;1.40;;
43114;SDS011;28727;50.068;14.452;2022-12-22T17:11:09;2.45;;;1.40;;
43114;SDS011;28727;50.068;14.452;2022-12-22T17:13:49;2.95;;;1.65;;
43114;SDS011;28727;50.068;14.452;2022-12-22T17:16:24;3.00;;;1.73;;
43114;SDS011;28727;50.068;14.452;2022-12-22T17:18:56;4.80;;;2.08;;
43114;SDS011;28727;50.068;14.452;2022-12-22T17:21:27;4.03;;;1.63;;
43114;SDS011;28727;50.068;14.452;2022-12-22T17:24:00;5.00;;;2.10;;
43114;SDS011;28727;50.068;14.452;2022-12-22T17:26:35;5.28;;;2.13;;
43114;SDS011;28727;50.068;14.452;2022-12-22T17:29:17;3.42;;;2.05;;
43114;SDS011;28727;50.068;14.452;2022-12-22T17:31:50;4.03;;;2.10;;
43114;SDS011;28727;50.068;14.452;2022-12-22T17:34:26;8.50;;;4.57;;
43114;SDS011;28727;50.068;14.452;2022-12-22T17:36:58;9.38;;;5.00;;
43114;SDS011;28727;50.068;14.452;2022-12-22T17:39:30;4.60;;;2.00;;
43114;SDS011;28727;50.068;14.452;2022-12-22T17:42:14;3.00;;;1.53;;
43114;SDS011;28727;50.068;14.452;2022-12-22T17:44:51;7.45;;;2.97;;
43114;SDS011;28727;50.068;14.452;2022-12-22T17:47:23;3.00;;;1.80;;
43114;SDS011;28727;50.068;14.452;2022-12-22T17:50:06;4.82;;;1.95;;
43114;SDS011;28727;50.068;14.452;2022-12-22T17:52:40;3.90;;;2.10;;